createdAt,value
2023-02-25T00:01:29.566Z,2.60
2023-02-25T00:06:36.310Z,2.59
2023-02-25T00:11:44.483Z,2.55
2023-02-25T00:16:56.308Z,2.52
2023-02-25T00:22:03.137Z,2.54
2023-02-25T00:27:11.429Z,2.51
2023-02-25T00:32:17.934Z,2.51
2023-02-25T00:37:24.836Z,2.54
2023-02-25T00:42:32.888Z,2.53
2023-02-25T00:47:40.473Z,2.53
2023-02-25T00:52:48.454Z,2.53
2023-02-25T00:57:57.642Z,2.53
2023-02-25T01:03:03.810Z,2.51
2023-02-25T01:08:11.935Z,2.52
2023-02-25T01:13:20.010Z,2.57
2023-02-25T01:18:26.862Z,2.58
2023-02-25T01:23:33.991Z,2.60
2023-02-25T01:28:45.597Z,2.61
2023-02-25T01:33:51.932Z,2.60
2023-02-25T01:38:59.222Z,2.60
2023-02-25T01:44:15.234Z,2.61
2023-02-25T01:49:29.321Z,2.63
2023-02-25T01:54:37.052Z,2.62
2023-02-25T01:59:46.388Z,2.65
2023-02-25T02:04:55.271Z,2.64
2023-02-25T02:10:02.619Z,2.64
2023-02-25T02:15:14.429Z,2.64
2023-02-25T02:20:26.599Z,2.59
2023-02-25T02:26:25.834Z,2.63
2023-02-25T02:31:56.885Z,2.60
2023-02-25T02:37:23.590Z,2.60
2023-02-25T02:42:43.112Z,2.61
2023-02-25T02:47:59.874Z,2.60
2023-02-25T02:53:12.712Z,2.58
2023-02-25T02:58:28.113Z,2.59
2023-02-25T03:03:42.112Z,2.60
2023-02-25T03:08:56.413Z,2.56
2023-02-25T03:14:03.716Z,2.53
2023-02-25T03:19:17.909Z,2.51
2023-02-25T03:24:29.346Z,2.52
2023-02-25T03:29:36.276Z,2.54
2023-02-25T03:34:48.767Z,2.53
2023-02-25T03:40:00.428Z,2.53
2023-02-25T03:45:13.398Z,2.51
2023-02-25T03:50:25.853Z,2.54
2023-02-25T03:55:37.784Z,2.53
2023-02-25T04:00:47.441Z,2.55
2023-02-25T04:05:55.492Z,2.53
2023-02-25T04:11:02.392Z,2.54
2023-02-25T04:16:10.020Z,2.54
2023-02-25T04:21:30.412Z,2.51
2023-02-25T04:26:37.565Z,2.47
2023-02-25T04:31:44.207Z,2.45
2023-02-25T04:36:53.479Z,2.40
2023-02-25T04:42:00.458Z,2.43
2023-02-25T04:47:07.275Z,2.43
2023-02-25T04:52:16.752Z,2.42
2023-02-25T04:57:23.418Z,2.43
2023-02-25T05:02:30.539Z,2.40
2023-02-25T05:07:39.449Z,2.39
2023-02-25T05:12:46.430Z,2.38
2023-02-25T05:17:53.245Z,2.39
2023-02-25T05:23:02.066Z,2.37
2023-02-25T05:28:08.660Z,2.40
2023-02-25T05:33:15.184Z,2.39
2023-02-25T05:38:23.472Z,2.39
2023-02-25T05:43:30.200Z,2.41
2023-02-25T05:48:36.547Z,2.43
2023-02-25T05:53:45.750Z,2.43
2023-02-25T05:58:52.386Z,2.45
2023-02-25T06:03:59.952Z,2.46
2023-02-25T06:09:09.716Z,2.44
2023-02-25T06:14:18.117Z,2.47
2023-02-25T06:19:26.582Z,2.48
2023-02-25T06:24:37.179Z,2.48
2023-02-25T06:29:43.706Z,2.49
2023-02-25T06:34:50.282Z,2.50
2023-02-25T06:39:58.249Z,2.53
2023-02-25T06:45:04.803Z,2.54
2023-02-25T06:50:13.786Z,2.56
2023-02-25T06:55:21.818Z,2.56
2023-02-25T07:00:28.427Z,2.56
2023-02-25T07:05:34.897Z,2.58
2023-02-25T07:10:42.987Z,2.60
2023-02-25T07:15:49.936Z,2.61
2023-02-25T07:20:56.868Z,2.64
2023-02-25T07:26:08.111Z,2.65
2023-02-25T07:31:17.933Z,2.67
2023-02-25T07:36:27.508Z,2.70
2023-02-25T07:41:35.583Z,2.72
2023-02-25T07:46:42.765Z,2.78
2023-02-25T07:51:49.622Z,2.82
2023-02-25T07:56:57.847Z,2.85
2023-02-25T08:02:04.303Z,2.92
2023-02-25T08:07:10.956Z,2.96
2023-02-25T08:12:18.682Z,3.02
2023-02-25T08:17:25.360Z,3.02
2023-02-25T08:22:31.947Z,3.06
2023-02-25T08:27:40.269Z,3.08
2023-02-25T08:32:48.457Z,3.14
2023-02-25T08:37:54.974Z,3.16
2023-02-25T08:43:02.954Z,3.15
2023-02-25T08:48:10.131Z,3.13
2023-02-25T08:53:16.769Z,3.12
2023-02-25T08:58:24.551Z,3.17
2023-02-25T09:03:31.002Z,3.21
2023-02-25T09:08:37.327Z,3.30
2023-02-25T09:13:46.316Z,3.42
2023-02-25T09:18:52.912Z,3.46
2023-02-25T09:24:00.129Z,3.46
2023-02-25T09:29:09.738Z,3.54
2023-02-25T09:34:16.271Z,3.61
2023-02-25T09:39:22.988Z,3.68
2023-02-25T09:44:36.178Z,3.76
2023-02-25T09:49:48.461Z,3.78
2023-02-25T09:54:59.531Z,3.84
2023-02-25T10:00:18.806Z,3.91
2023-02-25T10:05:34.156Z,3.90
2023-02-25T10:10:51.221Z,3.87
2023-02-25T10:16:15.789Z,3.61
2023-02-25T10:21:37.825Z,3.31
2023-02-25T10:26:50.479Z,3.24
2023-02-25T10:32:02.253Z,3.18
2023-02-25T10:37:19.011Z,3.18
2023-02-25T10:42:26.527Z,3.23
2023-02-25T10:48:26.379Z,3.38
2023-02-25T10:53:34.725Z,3.43
2023-02-25T10:58:47.492Z,3.54
2023-02-25T11:04:04.363Z,3.67
2023-02-25T11:09:35.831Z,3.78
2023-02-25T11:14:43.001Z,3.84
2023-02-25T11:19:59.989Z,3.87
2023-02-25T11:25:17.490Z,3.93
2023-02-25T11:30:33.437Z,3.95
2023-02-25T11:35:42.383Z,3.93
2023-02-25T11:40:49.018Z,3.80
2023-02-25T11:46:02.242Z,3.78
2023-02-25T11:51:24.767Z,3.76
2023-02-25T11:56:37.125Z,3.70
2023-02-25T12:02:05.438Z,3.69
2023-02-25T12:08:12.312Z,3.68
2023-02-25T12:14:15.272Z,3.67
2023-02-25T12:20:20.717Z,3.75
2023-02-25T12:25:40.281Z,3.80
2023-02-25T12:31:37.831Z,3.83
2023-02-25T12:37:06.153Z,3.85
2023-02-25T12:42:35.775Z,3.80
2023-02-25T12:48:02.580Z,3.75
2023-02-25T12:53:30.017Z,3.74
2023-02-25T12:58:57.573Z,3.73
2023-02-25T13:04:33.499Z,3.75
2023-02-25T13:10:23.346Z,3.82
2023-02-25T13:15:40.893Z,3.87
2023-02-25T13:21:10.685Z,3.83
2023-02-25T13:27:09.798Z,3.90
2023-02-25T13:32:34.385Z,3.89
2023-02-25T13:37:55.291Z,3.85
2023-02-25T13:43:26.056Z,3.83
2023-02-25T13:49:05.720Z,3.82
2023-02-25T13:55:06.367Z,3.82
2023-02-25T14:01:02.616Z,3.77
2023-02-25T14:06:30.262Z,3.77
2023-02-25T14:11:57.740Z,3.74
2023-02-25T14:17:35.184Z,3.74
2023-02-25T14:22:51.299Z,3.69
2023-02-25T14:28:13.492Z,3.66
2023-02-25T14:33:55.399Z,3.68
2023-02-25T14:39:40.157Z,3.69
2023-02-25T14:44:58.885Z,3.68
2023-02-25T14:50:16.699Z,3.67
2023-02-25T14:56:08.949Z,3.69
2023-02-25T15:01:48.189Z,3.67
2023-02-25T15:07:15.503Z,3.62
2023-02-25T15:12:44.706Z,3.58
2023-02-25T15:18:46.220Z,3.56
2023-02-25T15:23:55.927Z,3.42
2023-02-25T15:29:05.942Z,3.39
2023-02-25T15:34:39.665Z,3.34
2023-02-25T15:39:56.645Z,3.28
2023-02-25T15:45:46.326Z,3.25
2023-02-25T15:51:00.792Z,3.21
2023-02-25T15:56:46.459Z,3.23
2023-02-25T16:01:57.085Z,3.21
2023-02-25T16:07:11.150Z,3.22
2023-02-25T16:12:21.022Z,3.16
2023-02-25T16:17:36.306Z,3.13
2023-02-25T16:22:54.070Z,3.12
2023-02-25T16:28:12.767Z,3.12
2023-02-25T16:33:33.129Z,3.12
2023-02-25T16:38:50.112Z,3.10
2023-02-25T16:44:02.006Z,3.12
2023-02-25T16:49:23.617Z,3.12
2023-02-25T16:54:37.130Z,3.10
2023-02-25T16:59:47.187Z,3.12
2023-02-25T17:04:58.360Z,3.05
2023-02-25T17:10:16.123Z,3.04
2023-02-25T17:15:31.328Z,3.05
2023-02-25T17:20:42.795Z,3.04
2023-02-25T17:25:54.151Z,3.00
2023-02-25T17:31:11.938Z,2.98
2023-02-25T17:36:27.159Z,2.95
2023-02-25T17:41:37.700Z,2.92
2023-02-25T17:46:58.444Z,2.95
2023-02-25T17:52:19.456Z,2.98
2023-02-25T17:57:34.943Z,2.95
2023-02-25T18:02:47.640Z,2.93
2023-02-25T18:08:25.822Z,2.94
2023-02-25T18:13:39.212Z,2.96
2023-02-25T18:18:54.283Z,2.93
2023-02-25T18:24:11.027Z,2.88
2023-02-25T18:29:23.637Z,2.85
2023-02-25T18:34:35.067Z,2.81
2023-02-25T18:39:45.768Z,2.82
2023-02-25T18:44:55.712Z,2.83
2023-02-25T18:50:06.951Z,2.79
2023-02-25T18:55:29.086Z,2.78
2023-02-25T19:00:41.385Z,2.79
2023-02-25T19:05:53.463Z,2.76
2023-02-25T19:11:05.717Z,2.77
2023-02-25T19:16:15.397Z,2.77
2023-02-25T19:21:30.128Z,2.74
2023-02-25T19:26:42.751Z,2.75
2023-02-25T19:31:59.269Z,2.69
2023-02-25T19:37:21.814Z,2.70
2023-02-25T19:42:33.155Z,2.66
2023-02-25T19:47:45.828Z,2.64
2023-02-25T19:52:59.570Z,2.62
2023-02-25T19:58:13.318Z,2.59
2023-02-25T20:03:28.759Z,2.49
2023-02-25T20:08:42.980Z,2.47
2023-02-25T20:13:58.129Z,2.46
2023-02-25T20:19:14.291Z,2.46
2023-02-25T20:24:23.498Z,2.46
2023-02-25T20:29:35.809Z,2.43
2023-02-25T20:34:53.509Z,2.45
2023-02-25T20:40:05.008Z,2.42
2023-02-25T20:45:22.668Z,2.43
2023-02-25T20:50:36.464Z,2.37
2023-02-25T20:55:47.854Z,2.32
2023-02-25T21:01:05.178Z,2.28
2023-02-25T21:06:17.541Z,2.26
2023-02-25T21:11:28.409Z,2.29
2023-02-25T21:16:38.674Z,2.25
2023-02-25T21:21:47.614Z,2.20
2023-02-25T21:26:57.236Z,2.16
2023-02-25T21:32:06.966Z,2.17
2023-02-25T21:37:15.720Z,2.21
2023-02-25T21:42:23.448Z,2.15
2023-02-25T21:47:33.401Z,2.15
2023-02-25T21:52:41.143Z,2.03
2023-02-25T21:57:48.736Z,1.97
2023-02-25T22:02:58.560Z,1.95
2023-02-25T22:08:06.181Z,1.90
2023-02-25T22:13:13.328Z,1.88
2023-02-25T22:18:25.314Z,1.85
2023-02-25T22:23:33.742Z,1.74
2023-02-25T22:28:40.970Z,1.72
2023-02-25T22:33:49.500Z,1.81
2023-02-25T22:38:57.312Z,1.69
2023-02-25T22:44:05.462Z,1.64
2023-02-25T22:49:14.624Z,1.70
2023-02-25T22:54:23.020Z,1.62
2023-02-25T22:59:30.482Z,1.62
2023-02-25T23:04:38.978Z,1.62
2023-02-25T23:09:46.675Z,1.56
2023-02-25T23:14:53.891Z,1.58
2023-02-25T23:20:02.464Z,1.54
2023-02-25T23:25:11.634Z,1.58
2023-02-25T23:30:20.485Z,1.57
2023-02-25T23:35:29.739Z,1.49
2023-02-25T23:40:37.848Z,1.46
2023-02-25T23:45:46.915Z,1.41
2023-02-25T23:50:55.722Z,1.37
2023-02-25T23:56:07.879Z,1.37
